Time;durP1;ratioP1;P1;durP2;ratioP2;P2;SDS_P1;SDS_P2;PMS_P1;PMS_P2;Temp;Humidity;BMP_temperature;BMP_pressure;BME280_temperature;BME280_humidity;BME280_pressure;Samples;Min_cycle;Max_cycle;Signal;HPM_P1;HPM_P2
2021/04/21 00:01:23;;;;;;;;;;;4.60;99.90;;;;;;5071082;28;19955;-71
2021/04/21 00:03:49;;;;;;;;;;;4.50;99.90;;;;;;5070715;28;20353;-71
2021/04/21 00:06:15;;;;;;;;;;;4.40;99.90;;;;;;5070036;28;19951;-71
2021/04/21 00:08:41;;;;;;;;;;;4.30;99.90;;;;;;5070881;28;20360;-71
2021/04/21 00:11:07;;;;;;;;;;;4.30;99.90;;;;;;5071117;28;20284;-71
2021/04/21 00:13:33;;;;;;;;;;;4.30;99.90;;;;;;5071066;28;19908;-71
2021/04/21 00:15:59;;;;;;;;;;;4.30;99.90;;;;;;5069867;28;20493;-71
2021/04/21 00:18:25;;;;;;;;;;;4.30;99.90;;;;;;5069514;28;19909;-71
2021/04/21 00:20:52;;;;;;;;;;;4.30;99.90;;;;;;5070586;28;19919;-71
2021/04/21 00:23:18;;;;;;;;;;;4.30;99.90;;;;;;5071263;28;20354;-71
2021/04/21 00:25:44;;;;;;;;;;;4.20;99.90;;;;;;5070052;28;19908;-70
2021/04/21 00:28:09;;;;;;;;;;;4.10;99.90;;;;;;5071043;28;20365;-71
2021/04/21 00:30:36;;;;;;;;;;;4.10;99.90;;;;;;5070849;28;19908;-71
2021/04/21 00:33:02;;;;;;;;;;;4.00;99.90;;;;;;5070474;28;19908;-71
2021/04/21 00:35:34;;;;;;;;;;;4.00;99.90;;;;;;5070795;28;19917;-72
2021/04/21 00:38:02;;;;;;;;;;;4.00;99.90;;;;;;5070395;28;19909;-71
2021/04/21 00:40:48;;;;;;;;;;;3.90;99.90;;;;;;5070827;28;19991;-71
2021/04/21 00:43:29;;;;;;;;;;;3.90;99.90;;;;;;5069726;28;19915;-70
2021/04/21 00:46:07;;;;;;;;;;;3.80;99.90;;;;;;5071668;28;19912;-70
2021/04/21 00:48:51;;;;;;;;;;;3.70;99.90;;;;;;5073043;28;19908;-70
2021/04/21 00:51:24;;;;;;;;;;;3.70;99.90;;;;;;5074418;28;19919;-70
2021/04/21 00:54:12;;;;;;;;;;;3.60;99.90;;;;;;5074516;28;19912;-70
2021/04/21 00:56:54;;;;;;;;;;;3.60;99.90;;;;;;5072952;28;19941;-70
2021/04/21 00:59:27;;;;;;;;;;;3.60;99.90;;;;;;5074383;28;20015;-71
2021/04/21 01:01:54;;;;;;;;;;;3.60;99.90;;;;;;5074240;28;19916;-71
2021/04/21 01:04:20;;;;;;;;;;;3.60;99.90;;;;;;5074088;28;20347;-71
2021/04/21 01:06:46;;;;;;;;;;;3.60;99.90;;;;;;5073372;28;19908;-71
2021/04/21 01:09:13;;;;;;;;;;;3.70;99.90;;;;;;5072852;28;20289;-71
2021/04/21 01:11:57;;;;;;;;;;;3.70;99.90;;;;;;5074370;28;20007;-71
2021/04/21 01:14:25;;;;;;;;;;;3.70;99.90;;;;;;5074024;28;19916;-71
2021/04/21 01:16:59;;;;;;;;;;;3.80;99.90;;;;;;5072955;28;20025;-71
2021/04/21 01:19:41;;;;;;;;;;;3.80;99.90;;;;;;5070969;28;19915;-71
2021/04/21 01:22:42;;;;;;;;;;;3.80;99.90;;;;;;5074090;28;19908;-71
2021/04/21 01:25:11;;;;;;;;;;;3.80;99.90;;;;;;5071603;28;20008;-71
2021/04/21 01:27:46;;;;;;;;;;;3.70;99.90;;;;;;5072302;28;20274;-71
2021/04/21 01:30:21;;;;;;;;;;;3.60;99.90;;;;;;5069532;28;19909;-71
2021/04/21 01:32:48;;;;;;;;;;;3.50;99.90;;;;;;5073587;28;19954;-71
2021/04/21 01:35:17;;;;;;;;;;;3.40;99.90;;;;;;5073225;28;19908;-71
2021/04/21 01:37:43;;;;;;;;;;;3.40;99.90;;;;;;5072551;28;19908;-71
2021/04/21 01:40:20;;;;;;;;;;;3.30;99.90;;;;;;5073784;28;19921;-71
2021/04/21 01:42:48;;;;;;;;;;;3.30;99.90;;;;;;5073651;28;19951;-70
2021/04/21 01:45:17;;;;;;;;;;;3.30;99.90;;;;;;5073411;28;19922;-71
2021/04/21 01:47:43;;;;;;;;;;;3.40;99.90;;;;;;5071108;28;19909;-70
2021/04/21 01:50:12;;;;;;;;;;;3.40;99.90;;;;;;5073137;28;19916;-70
2021/04/21 01:52:38;;;;;;;;;;;3.40;99.90;;;;;;5073509;28;19916;-70
2021/04/21 01:55:09;;;;;;;;;;;3.30;99.90;;;;;;5073462;28;20342;-70
2021/04/21 01:57:53;;;;;;;;;;;3.20;99.90;;;;;;5072095;28;19916;-70
2021/04/21 02:00:28;;;;;;;;;;;3.20;99.90;;;;;;5073097;28;19916;-70
2021/04/21 02:02:58;;;;;;;;;;;3.30;99.90;;;;;;5073216;28;19999;-70
2021/04/21 02:05:27;;;;;;;;;;;3.40;99.90;;;;;;5072970;28;20377;-71
2021/04/21 02:07:59;;;;;;;;;;;3.40;99.90;;;;;;5071996;28;20600;-71
2021/04/21 02:10:30;;;;;;;;;;;3.50;99.90;;;;;;5073171;28;20442;-71
2021/04/21 02:13:02;;;;;;;;;;;3.50;99.90;;;;;;5072951;28;19908;-71
2021/04/21 02:15:34;;;;;;;;;;;3.50;99.90;;;;;;5072880;28;19940;-71
2021/04/21 02:18:08;;;;;;;;;;;3.50;99.90;;;;;;5071302;28;19967;-71
2021/04/21 02:20:44;;;;;;;;;;;3.50;99.90;;;;;;5072637;28;19912;-70
2021/04/21 02:23:19;;;;;;;;;;;3.50;99.90;;;;;;5072599;28;19989;-70
2021/04/21 02:25:47;;;;;;;;;;;3.40;99.90;;;;;;5071798;28;19909;-70
2021/04/21 02:28:19;;;;;;;;;;;3.40;99.90;;;;;;5072702;28;20407;-70
2021/04/21 02:30:46;;;;;;;;;;;3.40;99.90;;;;;;5072771;28;19908;-70
2021/04/21 02:33:30;;;;;;;;;;;3.30;99.90;;;;;;5072305;28;19971;-70
2021/04/21 02:36:01;;;;;;;;;;;3.20;99.90;;;;;;5071302;28;19917;-70
2021/04/21 02:38:29;;;;;;;;;;;3.10;99.90;;;;;;5072662;28;19962;-70
2021/04/21 02:41:07;;;;;;;;;;;3.10;99.90;;;;;;5072557;28;20105;-71
2021/04/21 02:43:39;;;;;;;;;;;3.10;99.90;;;;;;5072410;28;19916;-70
2021/04/21 02:46:07;;;;;;;;;;;3.00;99.90;;;;;;5070876;28;20009;-70
2021/04/21 02:48:32;;;;;;;;;;;3.00;99.90;;;;;;5069664;28;19908;-70
2021/04/21 02:51:13;;;;;;;;;;;3.00;99.90;;;;;;5072314;28;20356;-70
2021/04/21 02:53:50;;;;;;;;;;;2.90;99.90;;;;;;5072230;28;19912;-70
2021/04/21 02:56:24;;;;;;;;;;;2.90;99.90;;;;;;5071073;28;19916;-70
2021/04/21 02:58:50;;;;;;;;;;;2.90;99.90;;;;;;5072139;28;19923;-70
2021/04/21 03:01:22;;;;;;;;;;;2.80;99.90;;;;;;5071876;28;19912;-70
2021/04/21 03:04:06;;;;;;;;;;;2.80;99.90;;;;;;5071719;28;19916;-70
2021/04/21 03:06:34;;;;;;;;;;;2.90;99.90;;;;;;5065054;28;20279;-70
2021/04/21 03:09:00;;;;;;;;;;;2.80;99.90;;;;;;5050933;28;20409;-72
2021/04/21 03:11:27;;;;;;;;;;;2.80;99.90;;;;;;5057122;28;19919;-70
2021/04/21 03:13:56;;;;;;;;;;;2.80;99.90;;;;;;5055251;28;19912;-70
2021/04/21 03:16:22;;;;;;;;;;;2.80;99.90;;;;;;5067806;28;20449;-70
2021/04/21 03:18:49;;;;;;;;;;;2.80;99.90;;;;;;5068307;28;19919;-70
2021/04/21 03:21:16;;;;;;;;;;;2.70;99.90;;;;;;5069575;28;19940;-70
2021/04/21 03:23:43;;;;;;;;;;;2.70;99.90;;;;;;5070502;28;20003;-70
2021/04/21 03:26:09;;;;;;;;;;;2.70;99.90;;;;;;5069534;28;19965;-70
2021/04/21 03:28:38;;;;;;;;;;;2.70;99.90;;;;;;5070275;28;19999;-70
2021/04/21 03:31:04;;;;;;;;;;;2.70;99.90;;;;;;5070653;28;19915;-70
2021/04/21 03:33:41;;;;;;;;;;;2.70;99.90;;;;;;5070315;28;19909;-70
2021/04/21 03:36:06;;;;;;;;;;;2.70;99.90;;;;;;5067606;28;19916;-70
2021/04/21 03:38:33;;;;;;;;;;;2.70;99.90;;;;;;5070576;28;19915;-70
2021/04/21 03:40:59;;;;;;;;;;;2.70;99.90;;;;;;5070943;28;19939;-70
2021/04/21 03:43:26;;;;;;;;;;;2.70;99.90;;;;;;5071057;28;19916;-70
2021/04/21 03:45:51;;;;;;;;;;;2.70;99.90;;;;;;5068895;28;19916;-70
2021/04/21 03:48:18;;;;;;;;;;;2.70;99.90;;;;;;5069472;28;19988;-70
2021/04/21 03:50:45;;;;;;;;;;;2.60;99.90;;;;;;5071125;28;19931;-69
2021/04/21 03:53:13;;;;;;;;;;;2.60;99.90;;;;;;5071348;28;19909;-70
2021/04/21 03:55:39;;;;;;;;;;;2.60;99.90;;;;;;5070432;28;19955;-70
2021/04/21 03:58:06;;;;;;;;;;;2.70;99.90;;;;;;5069533;28;19963;-70
2021/04/21 04:00:33;;;;;;;;;;;2.80;99.90;;;;;;5071286;28;19913;-70
2021/04/21 04:03:01;;;;;;;;;;;2.90;99.90;;;;;;5071189;28;20313;-70
2021/04/21 04:05:33;;;;;;;;;;;2.90;99.90;;;;;;5070946;28;19913;-70
2021/04/21 04:08:02;;;;;;;;;;;3.00;99.90;;;;;;5070407;28;20323;-70
2021/04/21 04:10:31;;;;;;;;;;;3.10;99.90;;;;;;5071206;28;19913;-70
2021/04/21 04:12:58;;;;;;;;;;;3.10;99.90;;;;;;5070901;28;19915;-70
2021/04/21 04:15:25;;;;;;;;;;;3.20;99.90;;;;;;5068011;28;20272;-70
2021/04/21 04:17:53;;;;;;;;;;;3.10;99.90;;;;;;5065218;28;19974;-70
2021/04/21 04:20:19;;;;;;;;;;;3.00;99.90;;;;;;5066122;28;20387;-70
2021/04/21 04:22:48;;;;;;;;;;;3.00;99.90;;;;;;5067331;28;19908;-70
2021/04/21 04:25:14;;;;;;;;;;;2.90;99.90;;;;;;5067820;28;19909;-70
2021/04/21 04:27:41;;;;;;;;;;;2.90;99.90;;;;;;5068153;28;19915;-70
2021/04/21 04:30:07;;;;;;;;;;;2.70;99.90;;;;;;5070339;28;19962;-70
2021/04/21 04:32:33;;;;;;;;;;;2.60;99.90;;;;;;5070713;28;19912;-70
2021/04/21 04:34:59;;;;;;;;;;;2.50;99.90;;;;;;5070487;28;20385;-70
2021/04/21 04:37:28;;;;;;;;;;;2.40;99.90;;;;;;5069673;28;19916;-70
2021/04/21 04:39:54;;;;;;;;;;;2.40;99.90;;;;;;5070657;28;19920;-70
2021/04/21 04:42:20;;;;;;;;;;;2.40;99.90;;;;;;5070481;28;19909;-70
2021/04/21 04:44:46;;;;;;;;;;;2.40;99.90;;;;;;5070450;28;20013;-70
2021/04/21 04:47:17;;;;;;;;;;;2.50;99.90;;;;;;5068935;28;19979;-70
2021/04/21 04:49:46;;;;;;;;;;;2.50;99.90;;;;;;5062565;28;19908;-70
2021/04/21 04:52:13;;;;;;;;;;;2.50;99.90;;;;;;5070517;28;19908;-70
2021/04/21 04:54:39;;;;;;;;;;;2.50;99.90;;;;;;5070659;28;19908;-70
2021/04/21 04:57:05;;;;;;;;;;;2.50;99.90;;;;;;5069251;28;19920;-70
2021/04/21 04:59:31;;;;;;;;;;;2.50;99.90;;;;;;5070329;28;19912;-70
2021/04/21 05:01:58;;;;;;;;;;;2.60;99.90;;;;;;5070646;28;19909;-70
2021/04/21 05:04:35;;;;;;;;;;;2.60;99.90;;;;;;5070171;28;19913;-70
2021/04/21 05:07:05;;;;;;;;;;;2.60;99.90;;;;;;5069344;28;19909;-70
2021/04/21 05:09:33;;;;;;;;;;;2.70;99.90;;;;;;5070462;28;20326;-70
2021/04/21 05:12:01;;;;;;;;;;;2.80;99.90;;;;;;5068850;28;19913;-70
2021/04/21 05:14:28;;;;;;;;;;;2.90;99.90;;;;;;5070401;28;20408;-70
2021/04/21 05:16:56;;;;;;;;;;;3.00;99.90;;;;;;5068982;28;19912;-70
2021/04/21 05:19:24;;;;;;;;;;;3.10;99.90;;;;;;5068847;28;19916;-70
2021/04/21 05:22:17;;;;;;;;;;;3.20;99.90;;;;;;5069288;28;20339;-70
2021/04/21 05:25:03;;;;;;;;;;;3.40;99.90;;;;;;5070588;28;19962;-70
2021/04/21 05:27:46;;;;;;;;;;;3.40;99.90;;;;;;5067614;28;19948;-71
2021/04/21 05:30:19;;;;;;;;;;;3.50;99.90;;;;;;5070364;28;19909;-70
2021/04/21 05:32:45;;;;;;;;;;;3.50;99.90;;;;;;5073256;28;19944;-70
2021/04/21 05:35:29;;;;;;;;;;;3.50;99.90;;;;;;5072617;28;20337;-70
2021/04/21 05:38:10;;;;;;;;;;;3.50;99.90;;;;;;5071192;28;20442;-70
2021/04/21 05:40:54;;;;;;;;;;;3.60;99.90;;;;;;5073630;28;20335;-70
2021/04/21 05:43:19;;;;;;;;;;;3.60;99.90;;;;;;5073363;28;20369;-70
2021/04/21 05:46:03;;;;;;;;;;;3.70;99.90;;;;;;5072465;28;19909;-70
2021/04/21 05:49:07;;;;;;;;;;;3.80;99.90;;;;;;5072065;28;19912;-70
2021/04/21 05:51:41;;;;;;;;;;;3.80;99.90;;;;;;5068399;28;19948;-70
2021/04/21 05:54:26;;;;;;;;;;;3.90;99.90;;;;;;5073986;28;19916;-70
2021/04/21 05:57:14;;;;;;;;;;;4.00;99.90;;;;;;5061137;28;19915;-70
2021/04/21 05:59:43;;;;;;;;;;;4.00;99.90;;;;;;5055069;28;19963;-70
2021/04/21 06:02:08;;;;;;;;;;;4.10;99.90;;;;;;5064712;28;19909;-71
2021/04/21 06:04:34;;;;;;;;;;;4.30;99.90;;;;;;5070638;28;20003;-71
2021/04/21 06:07:07;;;;;;;;;;;4.40;99.90;;;;;;5070098;28;19912;-71
2021/04/21 06:09:32;;;;;;;;;;;4.50;99.90;;;;;;5071808;28;19999;-70
2021/04/21 06:12:06;;;;;;;;;;;4.60;99.90;;;;;;5068492;28;20011;-71
2021/04/21 06:14:33;;;;;;;;;;;4.70;99.90;;;;;;5070555;28;19931;-71
2021/04/21 06:16:58;;;;;;;;;;;4.90;99.90;;;;;;5069560;28;19916;-70
2021/04/21 06:19:25;;;;;;;;;;;5.00;99.90;;;;;;5066271;28;19908;-70
2021/04/21 06:21:50;;;;;;;;;;;5.10;99.90;;;;;;5071081;28;19917;-70
2021/04/21 06:24:19;;;;;;;;;;;5.20;99.90;;;;;;5071958;28;19962;-70
2021/04/21 06:26:44;;;;;;;;;;;5.30;99.90;;;;;;5067772;28;19909;-70
2021/04/21 06:29:10;;;;;;;;;;;5.50;99.90;;;;;;5064380;28;20027;-70
2021/04/21 06:31:42;;;;;;;;;;;5.60;99.90;;;;;;5061368;28;20352;-70
2021/04/21 06:34:08;;;;;;;;;;;5.80;99.90;;;;;;5068839;28;20003;-70
2021/04/21 06:36:38;;;;;;;;;;;5.90;99.90;;;;;;5060629;28;20270;-70
2021/04/21 06:39:03;;;;;;;;;;;6.10;99.90;;;;;;5066990;28;19916;-70
2021/04/21 06:41:29;;;;;;;;;;;6.20;99.90;;;;;;5065933;28;20293;-70
2021/04/21 06:43:56;;;;;;;;;;;6.40;99.90;;;;;;5061106;28;19912;-70
2021/04/21 06:46:22;;;;;;;;;;;6.50;99.90;;;;;;5080498;28;19909;-70
2021/04/21 06:48:51;;;;;;;;;;;6.70;99.90;;;;;;5069988;28;19933;-70
2021/04/21 06:51:17;;;;;;;;;;;6.90;99.90;;;;;;5059267;28;20398;-71
2021/04/21 06:53:43;;;;;;;;;;;7.00;99.90;;;;;;5061330;28;19916;-71
2021/04/21 06:56:09;;;;;;;;;;;7.20;99.90;;;;;;5066836;28;19912;-70
2021/04/21 06:58:35;;;;;;;;;;;7.30;99.90;;;;;;5070032;28;19958;-71
2021/04/21 07:01:11;;;;;;;;;;;7.50;99.90;;;;;;5070623;28;19912;-71
2021/04/21 07:03:36;;;;;;;;;;;7.70;99.90;;;;;;5070869;28;20400;-74
2021/04/21 07:06:02;;;;;;;;;;;7.90;99.90;;;;;;5068934;28;19909;-73
2021/04/21 07:08:29;;;;;;;;;;;8.10;99.90;;;;;;5067168;28;19908;-74
2021/04/21 07:10:56;;;;;;;;;;;8.30;99.90;;;;;;5067110;28;19918;-73
2021/04/21 07:13:23;;;;;;;;;;;8.70;99.90;;;;;;5088707;28;19912;-74
2021/04/21 07:15:56;;;;;;;;;;;9.60;99.90;;;;;;5070410;28;19931;-78
2021/04/21 07:18:33;;;;;;;;;;;10.60;99.90;;;;;;5063961;28;19912;-73
2021/04/21 07:21:00;;;;;;;;;;;11.50;99.90;;;;;;5066437;28;19964;-72
2021/04/21 07:23:26;;;;;;;;;;;12.60;99.90;;;;;;5068263;28;19912;-73
2021/04/21 07:25:52;;;;;;;;;;;13.80;99.90;;;;;;5073676;28;19912;-72
2021/04/21 07:28:19;;;;;;;;;;;14.60;99.90;;;;;;5077474;28;20003;-72
2021/04/21 07:30:45;;;;;;;;;;;15.50;99.90;;;;;;5070307;28;19962;-72
2021/04/21 07:33:11;;;;;;;;;;;16.30;98.40;;;;;;5069251;28;19912;-72
2021/04/21 07:35:37;;;;;;;;;;;16.80;97.90;;;;;;5069382;28;19999;-71
2021/04/21 07:38:14;;;;;;;;;;;17.40;96.20;;;;;;5070086;28;19909;-71
2021/04/21 07:40:40;;;;;;;;;;;18.00;94.70;;;;;;5064646;28;19912;-72
2021/04/21 07:43:11;;;;;;;;;;;18.40;94.00;;;;;;5067878;28;19908;-72
2021/04/21 07:45:53;;;;;;;;;;;18.90;92.80;;;;;;5068999;28;20216;-72
2021/04/21 07:48:34;;;;;;;;;;;19.30;91.30;;;;;;5068836;28;19917;-72
2021/04/21 07:51:24;;;;;;;;;;;19.30;89.80;;;;;;5065931;28;19912;-73
2021/04/21 07:53:54;;;;;;;;;;;19.40;89.80;;;;;;5059470;28;20003;-73
2021/04/21 07:56:20;;;;;;;;;;;19.90;90.10;;;;;;5059333;28;19908;-73
2021/04/21 07:58:47;;;;;;;;;;;20.30;86.90;;;;;;5085760;28;20631;-73
2021/04/21 08:01:12;;;;;;;;;;;20.40;85.30;;;;;;5069383;28;19919;-74
2021/04/21 08:03:38;;;;;;;;;;;20.80;84.90;;;;;;5070174;28;19999;-73
2021/04/21 08:06:04;;;;;;;;;;;20.90;81.20;;;;;;5069011;28;19962;-74
2021/04/21 08:08:30;;;;;;;;;;;20.90;84.80;;;;;;5071375;28;19912;-74
2021/04/21 08:10:55;;;;;;;;;;;21.00;83.90;;;;;;5072844;28;19912;-77
2021/04/21 08:13:40;;;;;;;;;;;21.30;81.10;;;;;;5076561;28;20424;-75
2021/04/21 08:16:18;;;;;;;;;;;21.40;79.80;;;;;;5068626;28;19908;-74
2021/04/21 08:18:44;;;;;;;;;;;21.30;80.90;;;;;;5067814;28;19967;-74
2021/04/21 08:21:09;;;;;;;;;;;21.50;80.40;;;;;;5079554;28;20383;-74
2021/04/21 08:23:36;;;;;;;;;;;21.50;79.90;;;;;;5066309;28;20003;-74
2021/04/21 08:26:02;;;;;;;;;;;21.60;78.10;;;;;;5070447;28;19909;-73
2021/04/21 08:28:28;;;;;;;;;;;21.70;76.20;;;;;;5063442;28;19916;-74
2021/04/21 08:30:54;;;;;;;;;;;21.60;73.80;;;;;;5064317;28;19909;-74
2021/04/21 08:33:20;;;;;;;;;;;21.80;77.00;;;;;;5069717;28;19909;-74
2021/04/21 08:35:45;;;;;;;;;;;21.90;73.90;;;;;;5068812;28;20004;-75
2021/04/21 08:38:11;;;;;;;;;;;22.00;72.90;;;;;;5066053;28;19960;-74
2021/04/21 08:40:38;;;;;;;;;;;21.90;70.10;;;;;;5069603;28;19981;-74
2021/04/21 08:43:06;;;;;;;;;;;21.90;69.00;;;;;;5066853;28;20366;-74
2021/04/21 08:45:32;;;;;;;;;;;22.00;72.00;;;;;;5065463;28;19908;-74
2021/04/21 08:47:58;;;;;;;;;;;22.20;73.90;;;;;;5056788;28;19908;-74
2021/04/21 08:50:24;;;;;;;;;;;22.40;68.90;;;;;;5088178;28;19908;-75
2021/04/21 08:52:51;;;;;;;;;;;22.40;71.30;;;;;;5078418;28;19959;-74
2021/04/21 08:55:17;;;;;;;;;;;22.50;69.20;;;;;;5061295;28;19923;-75
2021/04/21 08:57:43;;;;;;;;;;;22.50;69.90;;;;;;5069675;28;19909;-75
2021/04/21 09:00:09;;;;;;;;;;;22.60;70.00;;;;;;5070336;28;20454;-75
2021/04/21 09:02:34;;;;;;;;;;;22.70;69.10;;;;;;5069984;28;19912;-74
2021/04/21 09:05:02;;;;;;;;;;;22.70;70.80;;;;;;5062100;28;20559;-74
2021/04/21 09:07:28;;;;;;;;;;;22.80;73.70;;;;;;5071961;28;19912;-72
2021/04/21 09:09:55;;;;;;;;;;;23.10;71.80;;;;;;5073889;28;19919;-72
2021/04/21 09:12:21;;;;;;;;;;;23.20;67.80;;;;;;5073406;28;20286;-73
2021/04/21 09:14:46;;;;;;;;;;;23.20;71.90;;;;;;5069514;28;20012;-72
2021/04/21 09:17:12;;;;;;;;;;;23.20;67.30;;;;;;5072565;28;19919;-73
2021/04/21 09:19:37;;;;;;;;;;;23.30;66.50;;;;;;5064675;28;20296;-72
2021/04/21 09:22:07;;;;;;;;;;;23.40;68.50;;;;;;5079406;28;19915;-73
2021/04/21 09:24:36;;;;;;;;;;;23.50;62.80;;;;;;5073950;28;19932;-73
2021/04/21 09:27:20;;;;;;;;;;;23.50;65.00;;;;;;5072577;28;19954;-72
2021/04/21 09:29:46;;;;;;;;;;;23.70;62.70;;;;;;5065098;28;19909;-72
2021/04/21 09:32:11;;;;;;;;;;;23.90;64.70;;;;;;5064436;28;19916;-72
2021/04/21 09:34:41;;;;;;;;;;;24.10;62.50;;;;;;5057977;28;20258;-72
2021/04/21 09:37:23;;;;;;;;;;;24.20;62.50;;;;;;5050785;28;19923;-72
2021/04/21 09:39:48;;;;;;;;;;;24.00;59.00;;;;;;5066368;28;19916;-72
2021/04/21 09:42:24;;;;;;;;;;;23.90;58.40;;;;;;5073171;28;19909;-72
2021/04/21 09:44:50;;;;;;;;;;;23.30;58.00;;;;;;5053950;28;20259;-73
2021/04/21 09:47:18;;;;;;;;;;;23.10;59.00;;;;;;5057195;28;19920;-74
2021/04/21 09:49:44;;;;;;;;;;;23.10;57.80;;;;;;5064790;28;19909;-73
2021/04/21 09:52:13;;;;;;;;;;;23.10;60.20;;;;;;5070824;28;19915;-72
2021/04/21 09:54:44;;;;;;;;;;;23.10;57.80;;;;;;5066085;28;19909;-72
2021/04/21 09:57:13;;;;;;;;;;;23.20;58.10;;;;;;5070335;28;19912;-73
2021/04/21 09:59:39;;;;;;;;;;;23.20;59.40;;;;;;5077221;28;19942;-72
2021/04/21 10:02:23;;;;;;;;;;;23.30;57.80;;;;;;5062258;28;19912;-74
2021/04/21 10:04:49;;;;;;;;;;;23.60;58.90;;;;;;5073063;28;20437;-73
2021/04/21 10:07:17;;;;;;;;;;;24.20;61.00;;;;;;5072041;28;19940;-73
2021/04/21 10:09:46;;;;;;;;;;;24.50;57.30;;;;;;5072865;28;19916;-74
2021/04/21 10:12:12;;;;;;;;;;;24.80;56.50;;;;;;5072681;28;19963;-72
2021/04/21 10:14:38;;;;;;;;;;;25.10;54.50;;;;;;5073017;28;19909;-74
2021/04/21 10:17:04;;;;;;;;;;;25.20;55.60;;;;;;5067583;28;19916;-73
2021/04/21 10:19:31;;;;;;;;;;;25.40;59.10;;;;;;5058487;28;19909;-73
2021/04/21 10:21:56;;;;;;;;;;;25.50;55.30;;;;;;5058858;28;20011;-73
2021/04/21 10:24:22;;;;;;;;;;;24.80;51.60;;;;;;5063526;28;19995;-73
2021/04/21 10:26:48;;;;;;;;;;;24.10;52.90;;;;;;5050675;28;19916;-73
2021/04/21 10:29:13;;;;;;;;;;;23.90;54.60;;;;;;5061984;28;20007;-73
2021/04/21 10:31:39;;;;;;;;;;;23.90;56.70;;;;;;5070523;28;19912;-73
2021/04/21 10:34:05;;;;;;;;;;;23.90;54.20;;;;;;5059560;28;19908;-73
2021/04/21 10:36:31;;;;;;;;;;;24.00;54.90;;;;;;5062144;28;20003;-74
2021/04/21 10:38:56;;;;;;;;;;;23.70;52.40;;;;;;5069244;28;19998;-73
2021/04/21 10:41:25;;;;;;;;;;;23.40;54.80;;;;;;5074539;28;19920;-73
2021/04/21 10:44:06;;;;;;;;;;;23.10;55.00;;;;;;5060065;28;20388;-73
2021/04/21 10:46:50;;;;;;;;;;;22.90;55.90;;;;;;5061561;28;19913;-73
2021/04/21 10:49:34;;;;;;;;;;;22.50;56.70;;;;;;5058337;28;20357;-74
2021/04/21 10:52:10;;;;;;;;;;;22.10;54.30;;;;;;5056757;28;20386;-73
2021/04/21 10:54:35;;;;;;;;;;;21.20;54.60;;;;;;5063576;28;19970;-75
2021/04/21 10:57:19;;;;;;;;;;;20.60;56.00;;;;;;5071488;28;20332;-74
2021/04/21 11:00:03;;;;;;;;;;;20.30;57.20;;;;;;5073412;28;19908;-73
2021/04/21 11:02:43;;;;;;;;;;;20.10;58.60;;;;;;5073185;28;19919;-73
2021/04/21 11:05:12;;;;;;;;;;;20.30;58.80;;;;;;5071963;28;19970;-75
2021/04/21 11:07:42;;;;;;;;;;;20.60;61.20;;;;;;5071069;28;19909;-73
2021/04/21 11:10:09;;;;;;;;;;;20.90;59.80;;;;;;5071546;28;19954;-72
2021/04/21 11:12:54;;;;;;;;;;;21.10;59.80;;;;;;5063402;28;19916;-74
2021/04/21 11:15:39;;;;;;;;;;;21.60;60.80;;;;;;5057815;28;19912;-73
2021/04/21 11:18:07;;;;;;;;;;;22.40;57.70;;;;;;5062702;28;20367;-73
2021/04/21 11:20:52;;;;;;;;;;;23.30;57.10;;;;;;5055667;28;20016;-74
2021/04/21 11:23:37;;;;;;;;;;;23.70;54.90;;;;;;5053776;28;19940;-73
2021/04/21 11:26:21;;;;;;;;;;;23.80;53.10;;;;;;5060035;28;19999;-73
2021/04/21 11:29:05;;;;;;;;;;;23.50;53.60;;;;;;5066241;28;19909;-74
2021/04/21 11:31:39;;;;;;;;;;;23.10;55.20;;;;;;5051470;28;19908;-73
2021/04/21 11:34:14;;;;;;;;;;;22.70;55.00;;;;;;5051105;28;19916;-72
2021/04/21 11:36:49;;;;;;;;;;;22.10;54.30;;;;;;5052957;28;19921;-74
2021/04/21 11:39:14;;;;;;;;;;;21.70;54.70;;;;;;5071168;28;19908;-73
2021/04/21 11:41:41;;;;;;;;;;;21.70;57.80;;;;;;5064837;28;19919;-73
2021/04/21 11:44:08;;;;;;;;;;;21.70;55.80;;;;;;5063732;28;19997;-73
2021/04/21 11:46:52;;;;;;;;;;;21.50;53.60;;;;;;5062314;28;19910;-74
2021/04/21 11:49:36;;;;;;;;;;;21.40;55.10;;;;;;5065851;28;19988;-73
2021/04/21 11:52:01;;;;;;;;;;;21.40;57.30;;;;;;5054001;28;20007;-73
2021/04/21 11:54:27;;;;;;;;;;;21.40;54.90;;;;;;5070937;28;19959;-73
2021/04/21 11:56:57;;;;;;;;;;;21.10;54.80;;;;;;5065217;28;19908;-72
2021/04/21 11:59:22;;;;;;;;;;;21.00;57.40;;;;;;5049958;28;19966;-73
2021/04/21 12:01:48;;;;;;;;;;;20.90;55.00;;;;;;5059879;28;20400;-74
2021/04/21 12:04:14;;;;;;;;;;;20.90;56.40;;;;;;5058137;28;19908;-74
2021/04/21 12:06:40;;;;;;;;;;;20.80;53.50;;;;;;5062182;28;19912;-74
2021/04/21 12:09:05;;;;;;;;;;;20.70;55.20;;;;;;5066870;28;19919;-73
2021/04/21 12:11:35;;;;;;;;;;;20.60;56.70;;;;;;5058550;28;19916;-73
2021/04/21 12:14:01;;;;;;;;;;;20.70;57.50;;;;;;5065756;28;19920;-73
2021/04/21 12:16:28;;;;;;;;;;;20.70;56.60;;;;;;5067581;28;20273;-75
2021/04/21 12:18:55;;;;;;;;;;;20.70;54.60;;;;;;5070740;28;19995;-73
2021/04/21 12:21:39;;;;;;;;;;;21.10;56.60;;;;;;5066305;28;19921;-73
2021/04/21 12:24:08;;;;;;;;;;;21.40;55.60;;;;;;5052647;28;20000;-73
2021/04/21 12:26:34;;;;;;;;;;;21.40;54.00;;;;;;5053430;28;20698;-73
2021/04/21 12:29:02;;;;;;;;;;;21.20;53.40;;;;;;5063085;28;19963;-73
2021/04/21 12:31:29;;;;;;;;;;;21.00;53.90;;;;;;5062045;28;19931;-73
2021/04/21 12:33:55;;;;;;;;;;;20.90;57.30;;;;;;5063558;28;20270;-73
2021/04/21 12:36:22;;;;;;;;;;;20.80;56.80;;;;;;5062247;28;19971;-73
2021/04/21 12:39:00;;;;;;;;;;;20.70;54.60;;;;;;5064422;28;20289;-73
2021/04/21 12:41:25;;;;;;;;;;;20.50;56.90;;;;;;5066771;28;20000;-73
2021/04/21 12:43:51;;;;;;;;;;;20.20;54.70;;;;;;5069807;28;20003;-73
2021/04/21 12:46:21;;;;;;;;;;;19.70;56.60;;;;;;5064818;28;19958;-73
2021/04/21 12:48:46;;;;;;;;;;;19.00;57.60;;;;;;5070195;28;19915;-73
2021/04/21 12:51:19;;;;;;;;;;;18.70;59.10;;;;;;5064183;28;19913;-73
2021/04/21 12:53:45;;;;;;;;;;;18.40;58.00;;;;;;5057857;28;19951;-73
2021/04/21 12:56:12;;;;;;;;;;;18.20;58.60;;;;;;5055847;28;20055;-73
2021/04/21 12:58:38;;;;;;;;;;;18.10;60.50;;;;;;5073298;28;20282;-73
2021/04/21 13:01:16;;;;;;;;;;;18.10;59.40;;;;;;5054309;28;20403;-73
2021/04/21 13:03:55;;;;;;;;;;;18.00;59.00;;;;;;5065333;28;19962;-73
2021/04/21 13:06:32;;;;;;;;;;;17.90;60.20;;;;;;5059678;28;19916;-73
2021/04/21 13:09:16;;;;;;;;;;;17.70;61.20;;;;;;5068054;28;19916;-73
2021/04/21 13:11:42;;;;;;;;;;;17.70;63.50;;;;;;5073476;28;19909;-73
2021/04/21 13:14:09;;;;;;;;;;;17.70;63.50;;;;;;5070469;28;20031;-72
2021/04/21 13:16:37;;;;;;;;;;;17.70;63.30;;;;;;5065352;28;19915;-73
2021/04/21 13:19:21;;;;;;;;;;;17.80;64.80;;;;;;5068017;28;20377;-73
2021/04/21 13:22:16;;;;;;;;;;;17.60;63.20;;;;;;5056880;28;20011;-73
2021/04/21 13:24:46;;;;;;;;;;;17.40;67.70;;;;;;5064293;28;19909;-73
2021/04/21 13:27:15;;;;;;;;;;;17.00;66.70;;;;;;5063979;28;19919;-72
2021/04/21 13:29:40;;;;;;;;;;;16.70;68.70;;;;;;5071014;28;19931;-73
2021/04/21 13:32:10;;;;;;;;;;;16.50;69.10;;;;;;5060958;28;19954;-73
2021/04/21 13:34:36;;;;;;;;;;;16.40;69.30;;;;;;5073081;28;19922;-73
2021/04/21 13:37:02;;;;;;;;;;;16.40;69.70;;;;;;5076545;28;19916;-73
2021/04/21 13:39:28;;;;;;;;;;;16.40;70.70;;;;;;5056104;28;19916;-73
2021/04/21 13:41:53;;;;;;;;;;;16.50;70.80;;;;;;5072702;28;19917;-72
2021/04/21 13:44:19;;;;;;;;;;;16.40;68.30;;;;;;5071567;28;19958;-72
2021/04/21 13:46:45;;;;;;;;;;;16.40;67.90;;;;;;5065723;28;20321;-72
2021/04/21 13:49:10;;;;;;;;;;;16.40;65.80;;;;;;5067812;28;19912;-73
2021/04/21 13:51:36;;;;;;;;;;;16.50;67.00;;;;;;5071025;28;19920;-72
2021/04/21 13:54:01;;;;;;;;;;;16.60;68.00;;;;;;5063295;28;20448;-73
2021/04/21 13:56:27;;;;;;;;;;;16.70;65.50;;;;;;5067829;28;20006;-73
2021/04/21 13:58:52;;;;;;;;;;;16.60;67.10;;;;;;5069416;28;19909;-73
2021/04/21 14:01:18;;;;;;;;;;;16.40;66.40;;;;;;5068736;28;19927;-72
2021/04/21 14:03:43;;;;;;;;;;;16.30;64.00;;;;;;5069705;28;19908;-72
2021/04/21 14:06:09;;;;;;;;;;;16.10;61.40;;;;;;5070505;28;19951;-72
2021/04/21 14:08:34;;;;;;;;;;;16.30;64.40;;;;;;5057686;28;19963;-72
2021/04/21 14:11:00;;;;;;;;;;;16.40;62.60;;;;;;5071807;28;19948;-72
2021/04/21 14:13:25;;;;;;;;;;;16.60;59.90;;;;;;5062262;28;20328;-72
2021/04/21 14:15:51;;;;;;;;;;;16.90;65.10;;;;;;5063591;28;19919;-72
2021/04/21 14:18:17;;;;;;;;;;;17.40;64.90;;;;;;5066175;28;20294;-73
2021/04/21 14:20:42;;;;;;;;;;;18.20;65.90;;;;;;5068745;28;20175;-73
2021/04/21 14:23:08;;;;;;;;;;;19.20;62.70;;;;;;5060036;28;19954;-73
2021/04/21 14:25:33;;;;;;;;;;;20.20;61.10;;;;;;5052839;28;19933;-72
2021/04/21 14:27:59;;;;;;;;;;;21.00;59.40;;;;;;5071918;28;20376;-72
2021/04/21 14:30:24;;;;;;;;;;;21.60;55.10;;;;;;5068006;28;19913;-72
2021/04/21 14:32:50;;;;;;;;;;;22.10;55.80;;;;;;5072780;28;19958;-72
2021/04/21 14:35:16;;;;;;;;;;;22.30;54.00;;;;;;5067844;28;19959;-72
2021/04/21 14:37:42;;;;;;;;;;;22.50;52.00;;;;;;5064463;28;19916;-72
2021/04/21 14:40:08;;;;;;;;;;;22.50;53.00;;;;;;5064123;28;19939;-72